Аэропорт: Угольный. Анадырь

ICAO: UHMA

METAR:
2019-12-12 10:00:00
UHMA 121000Z 09007MPS 8000 SCT006 SCT019 M01/M02 Q1000 R01/////// NOSIG RMK TDZ R01/09007G09MPS END R01/10007G10MPS QFE746/0995
METAR:
2019-12-12 07:51:00
TAF UHMA 120751Z 1209/1309 11008G13MPS 6000 -SN SCT007 BKN023 TEMPO 1209/1218 04003G08MPS 1500 SHSN BR BKN005 BKN015CB BECMG 1218/1220 35006MPS TEMPO 1220/1309 02003G08MPS 3100 -SHSN BKN007 BKN015CB